Estación de Los Colihues
Ultimos registro cada 15 minutos 83
| N° | Estación | Fecha / Hora | Temperatura | Humedad | Lluvia | Velocidad | Dirección | Radiación | Presion |
| 83 | Los Colihues | 07-05-2026 20:30 | 8,2 | 96 | 0 | 0 | 190 | 0,6 | 1017,7 |
| 82 | Los Colihues | 07-05-2026 20:15 | 8,3 | 95,6 | 0 | 0 | 190 | 0,6 | 1017,7 |
| 81 | Los Colihues | 07-05-2026 20:00 | 8,5 | 95,4 | 0 | 0 | 190 | 0,6 | 1017,7 |
| 80 | Los Colihues | 07-05-2026 19:45 | 8,4 | 95,3 | 0 | 0 | 190 | 0,6 | 1017,5 |
| 79 | Los Colihues | 07-05-2026 19:30 | 8,5 | 95 | 0 | 0 | 190 | 0,6 | 1017,7 |
| 78 | Los Colihues | 07-05-2026 19:15 | 8,7 | 95 | 0 | 0 | 190 | 0,6 | 1017,6 |
| 77 | Los Colihues | 07-05-2026 19:00 | 8,7 | 93,9 | 0 | 0 | 190 | 0,6 | 1017,7 |
| 76 | Los Colihues | 07-05-2026 18:45 | 9 | 94,3 | 0 | 0 | 190 | 0,6 | 1017,8 |
| 75 | Los Colihues | 07-05-2026 18:30 | 9,1 | 91,7 | 0 | 0 | 190 | 0,6 | 1017,8 |
| 74 | Los Colihues | 07-05-2026 18:15 | 9,3 | 89,7 | 0 | 0 | 190 | 0,6 | 1017,7 |
| 73 | Los Colihues | 07-05-2026 18:00 | 9,5 | 87,2 | 0 | 0 | 190 | 1,9 | 1017,7 |
| 72 | Los Colihues | 07-05-2026 17:45 | 9,8 | 87,3 | 0 | 0 | 190 | 4,4 | 1017,4 |
| 71 | Los Colihues | 07-05-2026 17:30 | 10,3 | 85,1 | 0 | 0 | 190 | 10,6 | 1017,7 |
| 70 | Los Colihues | 07-05-2026 17:15 | 10,6 | 83 | 0 | 0 | 190 | 18,1 | 1017,8 |
| 69 | Los Colihues | 07-05-2026 17:00 | 11 | 77,1 | 0 | 0 | 190 | 28,1 | 1017,9 |
| 68 | Los Colihues | 07-05-2026 16:45 | 11,1 | 72,4 | 0 | 0 | 190 | 24,4 | 1018 |
| 67 | Los Colihues | 07-05-2026 16:30 | 11,3 | 69 | 0 | 0 | 190 | 30,6 | 1018 |
| 66 | Los Colihues | 07-05-2026 16:15 | 11,5 | 70,7 | 0 | 0 | 190 | 41,9 | 1017,7 |
| 65 | Los Colihues | 07-05-2026 16:00 | 11,6 | 68,8 | 0 | 0 | 187 | 54,4 | 1017,7 |
| 64 | Los Colihues | 07-05-2026 15:45 | 11,8 | 68,3 | 0 | 0 | 201 | 61,9 | 1018 |
| 63 | Los Colihues | 07-05-2026 15:30 | 12,1 | 67,8 | 0 | 0 | 206 | 80,6 | 1017,5 |
| 62 | Los Colihues | 07-05-2026 15:15 | 12,2 | 65,4 | 0 | 0,5 | 192 | 100,6 | 1017,5 |
| 61 | Los Colihues | 07-05-2026 15:00 | 12,4 | 66 | 0 | 0 | 201 | 140,6 | 1017,6 |
| 60 | Los Colihues | 07-05-2026 14:45 | 12,6 | 65,5 | 0 | 0,5 | 211 | 166,9 | 1017,7 |
| 59 | Los Colihues | 07-05-2026 14:30 | 12,6 | 60,4 | 0 | 0,5 | 181 | 180,6 | 1017,7 |
| 58 | Los Colihues | 07-05-2026 14:15 | 12,7 | 65,8 | 0 | 1 | 184 | 230,6 | 1017,6 |
| 57 | Los Colihues | 07-05-2026 14:00 | 12,9 | 62,7 | 0 | 1 | 188 | 260,6 | 1017,5 |
| 56 | Los Colihues | 07-05-2026 13:45 | 12,7 | 62,5 | 0 | 1 | 192 | 260,6 | 1017,6 |
| 55 | Los Colihues | 07-05-2026 13:30 | 12,7 | 65,9 | 0 | 1,5 | 201 | 298,1 | 1017,8 |
| 54 | Los Colihues | 07-05-2026 13:15 | 13,1 | 66,1 | 0 | 1,5 | 181 | 255,6 | 1017,8 |
| 53 | Los Colihues | 07-05-2026 13:00 | 14,1 | 62 | 0 | 1,5 | 192 | 444,4 | 1017,4 |
| 52 | Los Colihues | 07-05-2026 12:45 | 13,4 | 65,9 | 0 | 1,5 | 191 | 260,6 | 1017,7 |
| 51 | Los Colihues | 07-05-2026 12:30 | 13,4 | 64,8 | 0 | 1,5 | 174 | 550,6 | 1017,4 |
| 50 | Los Colihues | 07-05-2026 12:15 | 13,1 | 64,6 | 0 | 1,5 | 175 | 589,4 | 1017,2 |
| 49 | Los Colihues | 07-05-2026 12:00 | 13,1 | 68,3 | 0 | 1,5 | 184 | 644,4 | 1017,6 |
| 48 | Los Colihues | 07-05-2026 11:45 | 12,8 | 68,8 | 0 | 1,5 | 184 | 670,6 | 1017,7 |
| 47 | Los Colihues | 07-05-2026 11:30 | 12,1 | 70,3 | 0 | 1 | 174 | 286,9 | 1018,7 |
| 46 | Los Colihues | 07-05-2026 11:15 | 11,9 | 76 | 0 | 0,5 | 168 | 313,1 | 1018,4 |
| 45 | Los Colihues | 07-05-2026 11:00 | 11,1 | 81,1 | 0 | 0,5 | 183 | 304,4 | 1018,8 |
| 44 | Los Colihues | 07-05-2026 10:45 | 10,8 | 83,9 | 0 | 0 | 205 | 313,1 | 1018,5 |
| 43 | Los Colihues | 07-05-2026 10:30 | 9,7 | 87,2 | 0 | 0 | 174 | 228,1 | 1018,9 |
| 42 | Los Colihues | 07-05-2026 10:15 | 9,4 | 90 | 0 | 0 | 167 | 180,6 | 1019 |
| 41 | Los Colihues | 07-05-2026 10:00 | 8,8 | 91,7 | 0 | 0 | 167 | 169,4 | 1018,7 |
| 40 | Los Colihues | 07-05-2026 09:45 | 8,2 | 91,9 | 0 | 0 | 164 | 163,1 | 1018,9 |
| 39 | Los Colihues | 07-05-2026 09:30 | 7,6 | 93,7 | 0 | 0 | 153 | 133,1 | 1018,8 |
| 38 | Los Colihues | 07-05-2026 09:15 | 7,3 | 97,7 | 0 | 0 | 161 | 136,9 | 1018,5 |
| 37 | Los Colihues | 07-05-2026 09:00 | 7,1 | 99,4 | 0 | 0 | 188 | 100,6 | 1018,4 |
| 36 | Los Colihues | 07-05-2026 08:45 | 6,8 | 99,6 | 0 | 0 | 236 | 64,4 | 1018,8 |
| 35 | Los Colihues | 07-05-2026 08:30 | 6,3 | 99,9 | 0 | 0 | 236 | 43,1 | 1018,4 |
| 34 | Los Colihues | 07-05-2026 08:15 | 5,4 | 99,9 | 0 | 0 | 236 | 45,6 | 1018,2 |
| 33 | Los Colihues | 07-05-2026 08:00 | 4,4 | 99,7 | 0 | 0 | 236 | 25,6 | 1017,9 |
| 32 | Los Colihues | 07-05-2026 07:45 | 4 | 99,5 | 0 | 0 | 236 | 11,9 | 1017,8 |
| 31 | Los Colihues | 07-05-2026 07:30 | 4,6 | 99,5 | 0 | 0 | 236 | 1,9 | 1017,9 |
| 30 | Los Colihues | 07-05-2026 07:15 | 5,3 | 99,6 | 0 | 0 | 236 | 0,6 | 1017,7 |
| 29 | Los Colihues | 07-05-2026 07:00 | 5,3 | 99,4 | 0 | 0 | 236 | 0,6 | 1017,5 |
| 28 | Los Colihues | 07-05-2026 06:45 | 5,9 | 99,3 | 0 | 0 | 236 | 0,6 | 1017,3 |
| 27 | Los Colihues | 07-05-2026 06:30 | 6,2 | 99,2 | 0 | 0 | 236 | 0,6 | 1017,3 |
| 26 | Los Colihues | 07-05-2026 06:15 | 6,2 | 99,3 | 0 | 0 | 236 | 0,6 | 1017,2 |
| 25 | Los Colihues | 07-05-2026 06:00 | 6 | 99,2 | 0 | 0 | 236 | 0,6 | 1017,2 |
| 24 | Los Colihues | 07-05-2026 05:45 | 6,2 | 99,2 | 0 | 0 | 236 | 0,6 | 1017 |
| 23 | Los Colihues | 07-05-2026 05:30 | 5,7 | 99,1 | 0 | 0 | 236 | 0,6 | 1016,8 |
| 22 | Los Colihues | 07-05-2026 05:15 | 5,7 | 99,3 | 0 | 0 | 236 | 0,6 | 1016,7 |
| 21 | Los Colihues | 07-05-2026 05:00 | 5,3 | 99,1 | 0 | 0 | 236 | 0,6 | 1016,5 |
| 20 | Los Colihues | 07-05-2026 04:45 | 5,5 | 99,1 | 0 | 0 | 236 | 0,6 | 1016,4 |
| 19 | Los Colihues | 07-05-2026 04:30 | 5,2 | 99,2 | 0 | 0 | 237 | 0,6 | 1016,4 |
| 18 | Los Colihues | 07-05-2026 04:15 | 4,3 | 99 | 0 | 0 | 237 | 0,6 | 1016,4 |
| 17 | Los Colihues | 07-05-2026 04:00 | 3,5 | 99 | 0 | 0 | 237 | 0,6 | 1016,2 |
| 16 | Los Colihues | 07-05-2026 03:45 | 2,7 | 98,5 | 0 | 0 | 237 | 0,6 | 1016,1 |
| 15 | Los Colihues | 07-05-2026 03:30 | 3,3 | 98,4 | 0 | 0 | 237 | 0,6 | 1015,9 |
| 14 | Los Colihues | 07-05-2026 03:15 | 4,1 | 98,3 | 0 | 0 | 237 | 0,6 | 1015,9 |
| 13 | Los Colihues | 07-05-2026 03:00 | 4 | 98,4 | 0 | 0 | 236 | 0,6 | 1015,9 |
| 12 | Los Colihues | 07-05-2026 02:45 | 4 | 98,2 | 0 | 0 | 236 | 0,6 | 1016 |
| 11 | Los Colihues | 07-05-2026 02:30 | 4 | 98,2 | 0 | 0 | 236 | 0,6 | 1016 |
| 10 | Los Colihues | 07-05-2026 02:15 | 3,6 | 97,8 | 0 | 0 | 236 | 0,6 | 1015,9 |
| 9 | Los Colihues | 07-05-2026 02:00 | 3,7 | 97,8 | 0 | 0 | 237 | 0,6 | 1015,7 |
| 8 | Los Colihues | 07-05-2026 01:45 | 3,6 | 97,4 | 0 | 0 | 240 | 0,6 | 1015,8 |
| 7 | Los Colihues | 07-05-2026 01:30 | 3,8 | 97,2 | 0 | 0 | 240 | 0,6 | 1015,4 |
| 6 | Los Colihues | 07-05-2026 01:15 | 5,1 | 96,8 | 0 | 0 | 240 | 0,6 | 1015,2 |
| 5 | Los Colihues | 07-05-2026 01:00 | 4,6 | 96,3 | 0 | 0 | 240 | 0,6 | 1015,2 |
| 4 | Los Colihues | 07-05-2026 00:45 | 6 | 96 | 0 | 0 | 240 | 0,6 | 1015,4 |
| 3 | Los Colihues | 07-05-2026 00:30 | 6,1 | 95,3 | 0 | 0 | 240 | 0,6 | 1015 |
| 2 | Los Colihues | 07-05-2026 00:15 | 6,7 | 94,2 | 0 | 0 | 240 | 0,6 | 1015 |
| 1 | Los Colihues | 07-05-2026 00:00 | 7,7 | 93,8 | 0 | 0 | 230 | 0,6 | 1014,5 |